Airfield :
LOGIN :

Register | Disclaimer

   EN    FR    IT 

 










Legend :    VFR   Marginal VFR   IFR   Intensive IFR   Very Intensive IFR
Visi :
Ceiling :
>= 8 km
>= 3000ft
5 to 8 km
1000 to 3000 ft
1500m to 5 km
500 to 1000 ft
800 to 1500m
200 to 500 ft
< 800m
< 200 ft
Symbols :   Thunderstorms  Fog  Heavy snow  Heavy precipitations  Wind > 20 kt
SIGMETs :     Misc.  Thunderstorms  Icing  Turbulence  Mountain Waves  Volcanic Ashes






- Airport Elevation : 348 ft
- IATA code : TSR


LRTR - Timisoara

CURRENT METAR :
  • 290830Z 36007KT 9999 FEW019 16/12 Q1012

EXPIRED METARs :
  • 290800Z 02009KT 9999 FEW016 15/13 Q1011
  • 290730Z 03008KT 9999 FEW013 15/14 Q1011
  • 290700Z 02008KT 9999 FEW010 14/13 Q1011
  • 290630Z 01007KT 350V050 9999 FEW007 14/14 Q1011
  • 290600Z 36006KT CAVOK 13/13 Q1012

TAF TAF LRTR
Valid from the 29 at 06:00 until the 30 at 06:00 UTC


290500Z 2906/3006 01006KT 9999 SCT045
BECMG 2909/2911 5000 -SHRA SCT015 SCT035CB
TEMPO 2912/2918 3000 SHRA BKN015 SCT030CB BKN040
BECMG 2921/2923 3000 BR BKN010
TEMPO 3001/3005 1500 BR OVC005



MET'MAP, your aeronautical weather chart ! - Copyright ORBIFLY December 2007 - Disclaimer

ORBIFLY MET'MAP TEAM :

Programming & Development : Alexandra Zaïnal
Original concept : Baudouin d'Aumeries
Technical & hardware support : Manuel Goepfert
Assistance : Marc-Olivier Méhu

Contact : metmap@orbifly.com




SOURCES & CREDITS :

   NOAA